aviador You're here:

SPTN Decoded Metar

TACNA in PERU
Report Time2017-11-20 05:00:00
UTC Time2017-11-20 05:48:48
Flight Rules mvfr MVFR
WindVRB at 02 kt
Visibility6000 m
Phenomena:N/A
Clouds:Overcast 015 Hf
Expected CloudBase > 400 ft AGL from Temp-Dew spread
Ceiling1,500 ft
Temp15°C (ISA +3)
Dew Point14°C (94% RH)
QNH1016 hPa
Density Alt1,975 ft
Elevation1,503 ft
Report Wrong Elevation
Raw Report
SPTN 200500Z VRB02KT 6000 OVC015 15/14 Q1016 RMK PP000=

Extra information for SPTN:More info

Metar Taf Metar & Taf Last 4 Metars F.Rules Stats Wind Profile Meteogram Temp Stats Airport Information Weather charts Add Link Nearby VenuesMetar ALERT Operation Metar Decoded Social comments